sensor_id;sensor_type;location;lat;lon;timestamp;temperature;humidity
13610;DHT22;6876;50.788;4.940;2023-04-06T00:01:27;3.70;99.90
13610;DHT22;6876;50.788;4.940;2023-04-06T00:04:15;3.60;99.90
13610;DHT22;6876;50.788;4.940;2023-04-06T00:07:03;3.60;99.90
13610;DHT22;6876;50.788;4.940;2023-04-06T00:09:50;3.50;99.90
13610;DHT22;6876;50.788;4.940;2023-04-06T00:12:39;3.70;99.90
13610;DHT22;6876;50.788;4.940;2023-04-06T00:15:26;3.80;99.90
13610;DHT22;6876;50.788;4.940;2023-04-06T00:18:14;3.80;99.90
13610;DHT22;6876;50.788;4.940;2023-04-06T00:21:01;4.00;99.90
13610;DHT22;6876;50.788;4.940;2023-04-06T00:23:48;4.00;99.90
13610;DHT22;6876;50.788;4.940;2023-04-06T00:26:35;3.80;99.90
13610;DHT22;6876;50.788;4.940;2023-04-06T00:29:24;3.70;99.90
13610;DHT22;6876;50.788;4.940;2023-04-06T00:32:11;3.80;99.90
13610;DHT22;6876;50.788;4.940;2023-04-06T00:34:59;4.00;99.90
13610;DHT22;6876;50.788;4.940;2023-04-06T00:37:46;4.20;99.90
13610;DHT22;6876;50.788;4.940;2023-04-06T00:40:34;4.20;99.90
13610;DHT22;6876;50.788;4.940;2023-04-06T00:43:22;4.20;99.90
13610;DHT22;6876;50.788;4.940;2023-04-06T00:46:11;4.30;99.90
13610;DHT22;6876;50.788;4.940;2023-04-06T00:48:59;4.30;99.90
13610;DHT22;6876;50.788;4.940;2023-04-06T00:51:46;4.10;99.90
13610;DHT22;6876;50.788;4.940;2023-04-06T00:54:33;4.10;99.90
13610;DHT22;6876;50.788;4.940;2023-04-06T00:57:21;4.10;99.90
13610;DHT22;6876;50.788;4.940;2023-04-06T01:00:09;4.20;99.90
13610;DHT22;6876;50.788;4.940;2023-04-06T01:02:58;4.30;99.90
13610;DHT22;6876;50.788;4.940;2023-04-06T01:05:45;4.30;99.90
13610;DHT22;6876;50.788;4.940;2023-04-06T01:08:32;4.30;99.90
13610;DHT22;6876;50.788;4.940;2023-04-06T01:11:20;4.20;99.90
13610;DHT22;6876;50.788;4.940;2023-04-06T01:14:07;4.20;99.90
13610;DHT22;6876;50.788;4.940;2023-04-06T01:16:57;4.20;99.90
13610;DHT22;6876;50.788;4.940;2023-04-06T01:19:46;4.20;99.90
13610;DHT22;6876;50.788;4.940;2023-04-06T01:22:36;4.10;99.90
13610;DHT22;6876;50.788;4.940;2023-04-06T01:25:23;4.10;99.90
13610;DHT22;6876;50.788;4.940;2023-04-06T01:28:11;4.10;99.90
13610;DHT22;6876;50.788;4.940;2023-04-06T01:30:58;4.10;99.90
13610;DHT22;6876;50.788;4.940;2023-04-06T01:33:46;4.00;99.90
13610;DHT22;6876;50.788;4.940;2023-04-06T01:36:33;3.80;99.90
13610;DHT22;6876;50.788;4.940;2023-04-06T01:39:21;3.80;99.90
13610;DHT22;6876;50.788;4.940;2023-04-06T01:42:09;3.90;99.90
13610;DHT22;6876;50.788;4.940;2023-04-06T01:44:56;4.10;99.90
13610;DHT22;6876;50.788;4.940;2023-04-06T01:47:43;4.30;99.90
13610;DHT22;6876;50.788;4.940;2023-04-06T01:50:31;4.20;99.90
13610;DHT22;6876;50.788;4.940;2023-04-06T01:53:18;4.00;99.90
13610;DHT22;6876;50.788;4.940;2023-04-06T01:56:07;3.80;99.90
13610;DHT22;6876;50.788;4.940;2023-04-06T01:58:55;3.70;99.90
13610;DHT22;6876;50.788;4.940;2023-04-06T02:01:42;3.70;99.90
13610;DHT22;6876;50.788;4.940;2023-04-06T02:04:29;3.80;99.90
13610;DHT22;6876;50.788;4.940;2023-04-06T02:07:17;3.90;99.90
13610;DHT22;6876;50.788;4.940;2023-04-06T02:10:10;3.90;99.90
13610;DHT22;6876;50.788;4.940;2023-04-06T02:12:59;3.80;99.90
13610;DHT22;6876;50.788;4.940;2023-04-06T02:15:46;3.80;99.90
13610;DHT22;6876;50.788;4.940;2023-04-06T02:18:34;3.80;99.90
13610;DHT22;6876;50.788;4.940;2023-04-06T02:21:21;3.70;99.90
13610;DHT22;6876;50.788;4.940;2023-04-06T02:24:09;3.60;99.90
13610;DHT22;6876;50.788;4.940;2023-04-06T02:26:56;3.50;99.90
13610;DHT22;6876;50.788;4.940;2023-04-06T02:29:45;3.60;99.90
13610;DHT22;6876;50.788;4.940;2023-04-06T02:32:32;3.70;99.90
13610;DHT22;6876;50.788;4.940;2023-04-06T02:35:19;3.80;99.90
13610;DHT22;6876;50.788;4.940;2023-04-06T02:38:06;3.90;99.90
13610;DHT22;6876;50.788;4.940;2023-04-06T02:40:54;3.90;99.90
13610;DHT22;6876;50.788;4.940;2023-04-06T02:43:41;4.00;99.90
13610;DHT22;6876;50.788;4.940;2023-04-06T02:46:29;4.00;99.90
13610;DHT22;6876;50.788;4.940;2023-04-06T02:49:17;4.00;99.90
13610;DHT22;6876;50.788;4.940;2023-04-06T02:52:04;3.90;99.90
13610;DHT22;6876;50.788;4.940;2023-04-06T02:54:51;3.80;99.90
13610;DHT22;6876;50.788;4.940;2023-04-06T02:57:39;3.80;99.90
13610;DHT22;6876;50.788;4.940;2023-04-06T03:00:26;3.80;99.90
13610;DHT22;6876;50.788;4.940;2023-04-06T03:03:14;3.90;99.90
13610;DHT22;6876;50.788;4.940;2023-04-06T03:06:02;4.00;99.90
13610;DHT22;6876;50.788;4.940;2023-04-06T03:08:49;4.00;99.90
13610;DHT22;6876;50.788;4.940;2023-04-06T03:11:37;4.20;99.90
13610;DHT22;6876;50.788;4.940;2023-04-06T03:14:24;4.30;99.90
13610;DHT22;6876;50.788;4.940;2023-04-06T03:17:11;4.30;99.90
13610;DHT22;6876;50.788;4.940;2023-04-06T03:20:00;4.40;99.90
13610;DHT22;6876;50.788;4.940;2023-04-06T03:22:47;4.40;99.90
13610;DHT22;6876;50.788;4.940;2023-04-06T03:25:34;4.40;99.90
13610;DHT22;6876;50.788;4.940;2023-04-06T03:28:22;4.40;99.90
13610;DHT22;6876;50.788;4.940;2023-04-06T03:31:09;4.50;99.90
13610;DHT22;6876;50.788;4.940;2023-04-06T03:33:56;4.40;99.90
13610;DHT22;6876;50.788;4.940;2023-04-06T03:36:45;4.40;99.90
13610;DHT22;6876;50.788;4.940;2023-04-06T03:39:32;4.40;99.90
13610;DHT22;6876;50.788;4.940;2023-04-06T03:42:19;4.40;99.90
13610;DHT22;6876;50.788;4.940;2023-04-06T03:45:07;4.40;99.90
13610;DHT22;6876;50.788;4.940;2023-04-06T03:47:55;4.40;99.90
13610;DHT22;6876;50.788;4.940;2023-04-06T03:50:42;4.40;99.90
13610;DHT22;6876;50.788;4.940;2023-04-06T03:53:31;4.40;99.90
13610;DHT22;6876;50.788;4.940;2023-04-06T03:56:18;4.50;99.90
13610;DHT22;6876;50.788;4.940;2023-04-06T03:59:05;4.50;99.90
13610;DHT22;6876;50.788;4.940;2023-04-06T04:01:53;4.50;99.90
13610;DHT22;6876;50.788;4.940;2023-04-06T04:04:40;4.50;99.90
13610;DHT22;6876;50.788;4.940;2023-04-06T04:07:27;4.60;99.90
13610;DHT22;6876;50.788;4.940;2023-04-06T04:10:16;4.50;99.90
13610;DHT22;6876;50.788;4.940;2023-04-06T04:13:03;4.50;99.90
13610;DHT22;6876;50.788;4.940;2023-04-06T04:15:51;4.40;99.90
13610;DHT22;6876;50.788;4.940;2023-04-06T04:18:38;4.40;99.90
13610;DHT22;6876;50.788;4.940;2023-04-06T04:21:29;4.50;99.90
13610;DHT22;6876;50.788;4.940;2023-04-06T04:24:17;4.60;99.90
13610;DHT22;6876;50.788;4.940;2023-04-06T04:27:05;4.70;99.90
13610;DHT22;6876;50.788;4.940;2023-04-06T04:29:52;4.80;99.90
13610;DHT22;6876;50.788;4.940;2023-04-06T04:32:40;5.00;99.90
13610;DHT22;6876;50.788;4.940;2023-04-06T04:35:27;5.00;99.90
13610;DHT22;6876;50.788;4.940;2023-04-06T04:38:14;5.10;99.90
13610;DHT22;6876;50.788;4.940;2023-04-06T04:41:01;5.10;99.90
13610;DHT22;6876;50.788;4.940;2023-04-06T04:43:50;5.10;99.90
13610;DHT22;6876;50.788;4.940;2023-04-06T04:46:37;5.10;99.90
13610;DHT22;6876;50.788;4.940;2023-04-06T04:49:25;5.10;99.90
13610;DHT22;6876;50.788;4.940;2023-04-06T04:52:12;5.20;99.90
13610;DHT22;6876;50.788;4.940;2023-04-06T04:54:59;5.10;99.90
13610;DHT22;6876;50.788;4.940;2023-04-06T04:57:46;5.20;99.90
13610;DHT22;6876;50.788;4.940;2023-04-06T05:00:35;5.20;99.90
13610;DHT22;6876;50.788;4.940;2023-04-06T05:03:23;5.20;99.90
13610;DHT22;6876;50.788;4.940;2023-04-06T05:06:11;5.20;99.90
13610;DHT22;6876;50.788;4.940;2023-04-06T05:08:58;5.20;99.90
13610;DHT22;6876;50.788;4.940;2023-04-06T05:11:45;5.20;99.90
13610;DHT22;6876;50.788;4.940;2023-04-06T05:14:33;5.20;99.90
13610;DHT22;6876;50.788;4.940;2023-04-06T05:17:22;5.30;99.90
13610;DHT22;6876;50.788;4.940;2023-04-06T05:20:10;5.30;99.90
13610;DHT22;6876;50.788;4.940;2023-04-06T05:22:57;5.30;99.90
13610;DHT22;6876;50.788;4.940;2023-04-06T05:25:45;5.30;99.90
13610;DHT22;6876;50.788;4.940;2023-04-06T05:28:32;5.30;99.90
13610;DHT22;6876;50.788;4.940;2023-04-06T05:31:19;5.30;99.90
13610;DHT22;6876;50.788;4.940;2023-04-06T05:34:08;5.30;99.90
13610;DHT22;6876;50.788;4.940;2023-04-06T05:36:56;5.20;99.90
13610;DHT22;6876;50.788;4.940;2023-04-06T05:39:43;5.20;99.90
13610;DHT22;6876;50.788;4.940;2023-04-06T05:42:36;5.20;99.90
13610;DHT22;6876;50.788;4.940;2023-04-06T05:45:24;5.30;99.90
13610;DHT22;6876;50.788;4.940;2023-04-06T05:48:11;5.30;99.90
13610;DHT22;6876;50.788;4.940;2023-04-06T05:50:59;5.40;99.90
13610;DHT22;6876;50.788;4.940;2023-04-06T05:53:47;5.40;99.90
13610;DHT22;6876;50.788;4.940;2023-04-06T05:56:35;5.40;99.90
13610;DHT22;6876;50.788;4.940;2023-04-06T05:59:22;5.50;99.90
13610;DHT22;6876;50.788;4.940;2023-04-06T06:02:10;5.50;99.90
13610;DHT22;6876;50.788;4.940;2023-04-06T06:04:57;5.50;99.90
13610;DHT22;6876;50.788;4.940;2023-04-06T06:07:46;5.60;99.90
13610;DHT22;6876;50.788;4.940;2023-04-06T06:10:33;5.70;99.90
13610;DHT22;6876;50.788;4.940;2023-04-06T06:13:20;5.70;99.90
13610;DHT22;6876;50.788;4.940;2023-04-06T06:16:08;5.80;99.90
13610;DHT22;6876;50.788;4.940;2023-04-06T06:18:55;5.90;99.90
13610;DHT22;6876;50.788;4.940;2023-04-06T06:21:43;5.90;99.90
13610;DHT22;6876;50.788;4.940;2023-04-06T06:24:32;6.10;99.90
13610;DHT22;6876;50.788;4.940;2023-04-06T06:27:20;6.30;99.90
13610;DHT22;6876;50.788;4.940;2023-04-06T06:30:08;6.40;99.90
13610;DHT22;6876;50.788;4.940;2023-04-06T06:32:55;6.50;99.90
13610;DHT22;6876;50.788;4.940;2023-04-06T06:35:42;6.70;99.90
13610;DHT22;6876;50.788;4.940;2023-04-06T06:38:29;6.80;99.90
13610;DHT22;6876;50.788;4.940;2023-04-06T06:41:18;6.90;99.90
13610;DHT22;6876;50.788;4.940;2023-04-06T06:44:05;6.90;99.90
13610;DHT22;6876;50.788;4.940;2023-04-06T06:46:53;7.00;99.90
13610;DHT22;6876;50.788;4.940;2023-04-06T06:49:40;7.20;99.90
13610;DHT22;6876;50.788;4.940;2023-04-06T06:52:27;7.20;99.90
13610;DHT22;6876;50.788;4.940;2023-04-06T06:55:15;7.30;99.90
13610;DHT22;6876;50.788;4.940;2023-04-06T06:58:06;7.30;99.90
13610;DHT22;6876;50.788;4.940;2023-04-06T07:00:56;7.40;99.90
13610;DHT22;6876;50.788;4.940;2023-04-06T07:03:43;7.40;99.90
13610;DHT22;6876;50.788;4.940;2023-04-06T07:06:31;7.40;99.90
13610;DHT22;6876;50.788;4.940;2023-04-06T07:09:18;7.40;99.90
13610;DHT22;6876;50.788;4.940;2023-04-06T07:12:07;7.50;99.90
13610;DHT22;6876;50.788;4.940;2023-04-06T07:14:57;7.50;99.90
13610;DHT22;6876;50.788;4.940;2023-04-06T07:17:44;7.50;99.90
13610;DHT22;6876;50.788;4.940;2023-04-06T07:20:32;7.50;99.90
13610;DHT22;6876;50.788;4.940;2023-04-06T07:23:19;7.50;99.90
13610;DHT22;6876;50.788;4.940;2023-04-06T07:26:06;7.50;99.90
13610;DHT22;6876;50.788;4.940;2023-04-06T07:28:54;7.50;99.90
13610;DHT22;6876;50.788;4.940;2023-04-06T07:31:42;7.50;99.90
13610;DHT22;6876;50.788;4.940;2023-04-06T07:34:30;7.50;99.90
13610;DHT22;6876;50.788;4.940;2023-04-06T07:37:17;7.60;99.90
13610;DHT22;6876;50.788;4.940;2023-04-06T07:40:06;7.80;99.90
13610;DHT22;6876;50.788;4.940;2023-04-06T07:42:53;7.90;99.90
13610;DHT22;6876;50.788;4.940;2023-04-06T07:45:40;8.10;99.90
13610;DHT22;6876;50.788;4.940;2023-04-06T07:48:29;8.10;99.90
13610;DHT22;6876;50.788;4.940;2023-04-06T07:51:17;8.10;99.90
13610;DHT22;6876;50.788;4.940;2023-04-06T07:54:04;8.20;99.90
13610;DHT22;6876;50.788;4.940;2023-04-06T07:56:51;8.20;99.90
13610;DHT22;6876;50.788;4.940;2023-04-06T07:59:39;8.20;99.90
13610;DHT22;6876;50.788;4.940;2023-04-06T08:02:26;8.20;99.90
13610;DHT22;6876;50.788;4.940;2023-04-06T08:05:15;8.30;99.90
13610;DHT22;6876;50.788;4.940;2023-04-06T08:08:04;8.30;99.90
13610;DHT22;6876;50.788;4.940;2023-04-06T08:10:51;8.30;99.90
13610;DHT22;6876;50.788;4.940;2023-04-06T08:13:39;8.30;99.90
13610;DHT22;6876;50.788;4.940;2023-04-06T08:16:26;8.40;99.90
13610;DHT22;6876;50.788;4.940;2023-04-06T08:19:16;8.50;99.90
13610;DHT22;6876;50.788;4.940;2023-04-06T08:22:06;8.50;99.90
13610;DHT22;6876;50.788;4.940;2023-04-06T08:24:53;8.60;99.90
13610;DHT22;6876;50.788;4.940;2023-04-06T08:27:40;8.70;99.90
13610;DHT22;6876;50.788;4.940;2023-04-06T08:30:28;8.80;99.90
13610;DHT22;6876;50.788;4.940;2023-04-06T08:33:15;8.90;99.90
13610;DHT22;6876;50.788;4.940;2023-04-06T08:36:10;8.80;99.90
13610;DHT22;6876;50.788;4.940;2023-04-06T08:39:00;8.80;99.90
13610;DHT22;6876;50.788;4.940;2023-04-06T08:41:47;8.80;99.90
13610;DHT22;6876;50.788;4.940;2023-04-06T08:44:34;8.80;99.90
13610;DHT22;6876;50.788;4.940;2023-04-06T08:47:23;8.80;99.90
13610;DHT22;6876;50.788;4.940;2023-04-06T08:50:11;8.70;99.90
13610;DHT22;6876;50.788;4.940;2023-04-06T08:52:59;8.80;99.90
13610;DHT22;6876;50.788;4.940;2023-04-06T08:55:48;8.70;99.90
13610;DHT22;6876;50.788;4.940;2023-04-06T08:58:39;8.70;99.90
13610;DHT22;6876;50.788;4.940;2023-04-06T09:01:27;8.70;99.90
13610;DHT22;6876;50.788;4.940;2023-04-06T09:04:15;8.70;99.90
13610;DHT22;6876;50.788;4.940;2023-04-06T09:07:02;8.70;99.90
13610;DHT22;6876;50.788;4.940;2023-04-06T09:09:49;8.70;99.90
13610;DHT22;6876;50.788;4.940;2023-04-06T09:12:39;8.70;99.90
13610;DHT22;6876;50.788;4.940;2023-04-06T09:15:26;8.70;99.90
13610;DHT22;6876;50.788;4.940;2023-04-06T09:18:14;8.80;99.90
13610;DHT22;6876;50.788;4.940;2023-04-06T09:21:17;8.80;99.90
13610;DHT22;6876;50.788;4.940;2023-04-06T09:24:05;8.80;99.90
13610;DHT22;6876;50.788;4.940;2023-04-06T09:26:53;8.80;99.90
13610;DHT22;6876;50.788;4.940;2023-04-06T09:29:43;8.80;99.90
13610;DHT22;6876;50.788;4.940;2023-04-06T09:32:30;8.90;99.90
13610;DHT22;6876;50.788;4.940;2023-04-06T09:35:18;8.90;99.90
13610;DHT22;6876;50.788;4.940;2023-04-06T09:38:11;8.90;99.90
13610;DHT22;6876;50.788;4.940;2023-04-06T09:40:59;8.90;99.90
13610;DHT22;6876;50.788;4.940;2023-04-06T09:43:47;9.00;99.90
13610;DHT22;6876;50.788;4.940;2023-04-06T09:46:38;9.00;99.90
13610;DHT22;6876;50.788;4.940;2023-04-06T09:49:27;9.00;99.90
13610;DHT22;6876;50.788;4.940;2023-04-06T09:52:15;8.90;99.90
13610;DHT22;6876;50.788;4.940;2023-04-06T09:55:05;9.00;99.90
13610;DHT22;6876;50.788;4.940;2023-04-06T09:57:58;8.90;99.90
13610;DHT22;6876;50.788;4.940;2023-04-06T10:00:54;9.00;99.90
13610;DHT22;6876;50.788;4.940;2023-04-06T10:03:52;9.10;99.90
13610;DHT22;6876;50.788;4.940;2023-04-06T10:06:42;9.20;99.90
13610;DHT22;6876;50.788;4.940;2023-04-06T10:09:30;9.20;99.90
13610;DHT22;6876;50.788;4.940;2023-04-06T10:12:21;9.20;99.90
13610;DHT22;6876;50.788;4.940;2023-04-06T10:15:09;9.10;99.90
13610;DHT22;6876;50.788;4.940;2023-04-06T10:17:57;9.20;99.90
13610;DHT22;6876;50.788;4.940;2023-04-06T10:20:51;9.10;99.90
13610;DHT22;6876;50.788;4.940;2023-04-06T10:23:43;9.20;99.90
13610;DHT22;6876;50.788;4.940;2023-04-06T10:26:31;9.30;99.90
13610;DHT22;6876;50.788;4.940;2023-04-06T10:29:21;9.30;99.90
13610;DHT22;6876;50.788;4.940;2023-04-06T10:32:08;9.40;99.90
13610;DHT22;6876;50.788;4.940;2023-04-06T10:35:05;9.40;99.90
13610;DHT22;6876;50.788;4.940;2023-04-06T10:38:00;9.40;99.90
13610;DHT22;6876;50.788;4.940;2023-04-06T10:40:48;9.30;99.90
13610;DHT22;6876;50.788;4.940;2023-04-06T10:43:37;9.30;99.90
13610;DHT22;6876;50.788;4.940;2023-04-06T10:46:25;9.20;99.90
13610;DHT22;6876;50.788;4.940;2023-04-06T10:49:13;9.30;99.90
13610;DHT22;6876;50.788;4.940;2023-04-06T10:52:00;9.40;99.90
13610;DHT22;6876;50.788;4.940;2023-04-06T10:54:49;9.60;99.90
13610;DHT22;6876;50.788;4.940;2023-04-06T10:57:37;9.60;99.90
13610;DHT22;6876;50.788;4.940;2023-04-06T11:00:24;9.60;99.90
13610;DHT22;6876;50.788;4.940;2023-04-06T11:03:12;9.60;99.90
13610;DHT22;6876;50.788;4.940;2023-04-06T11:05:59;9.60;99.90
13610;DHT22;6876;50.788;4.940;2023-04-06T11:08:46;9.60;99.90
13610;DHT22;6876;50.788;4.940;2023-04-06T11:11:39;9.60;99.90
13610;DHT22;6876;50.788;4.940;2023-04-06T11:14:26;9.70;99.90
13610;DHT22;6876;50.788;4.940;2023-04-06T11:17:13;9.80;99.90
13610;DHT22;6876;50.788;4.940;2023-04-06T11:20:01;9.80;99.90
13610;DHT22;6876;50.788;4.940;2023-04-06T11:22:50;9.70;99.90
13610;DHT22;6876;50.788;4.940;2023-04-06T11:25:38;9.70;99.90
13610;DHT22;6876;50.788;4.940;2023-04-06T11:28:26;9.70;99.90
13610;DHT22;6876;50.788;4.940;2023-04-06T11:31:14;9.60;99.90
13610;DHT22;6876;50.788;4.940;2023-04-06T11:34:01;9.70;99.90
13610;DHT22;6876;50.788;4.940;2023-04-06T11:36:57;9.60;99.90
13610;DHT22;6876;50.788;4.940;2023-04-06T11:39:47;9.70;99.90
13610;DHT22;6876;50.788;4.940;2023-04-06T11:42:36;9.80;99.90
13610;DHT22;6876;50.788;4.940;2023-04-06T11:45:25;9.80;99.90
13610;DHT22;6876;50.788;4.940;2023-04-06T11:48:19;9.70;99.90
13610;DHT22;6876;50.788;4.940;2023-04-06T11:51:07;9.70;99.90
13610;DHT22;6876;50.788;4.940;2023-04-06T11:53:55;9.60;99.90
13610;DHT22;6876;50.788;4.940;2023-04-06T11:56:46;9.60;99.90
13610;DHT22;6876;50.788;4.940;2023-04-06T11:59:34;9.60;99.90
13610;DHT22;6876;50.788;4.940;2023-04-06T12:02:23;9.40;99.90
13610;DHT22;6876;50.788;4.940;2023-04-06T12:05:10;9.40;99.90
13610;DHT22;6876;50.788;4.940;2023-04-06T12:07:58;9.40;99.90
13610;DHT22;6876;50.788;4.940;2023-04-06T12:10:45;9.30;99.90
13610;DHT22;6876;50.788;4.940;2023-04-06T12:13:32;9.30;99.90
13610;DHT22;6876;50.788;4.940;2023-04-06T12:16:19;9.40;99.90
13610;DHT22;6876;50.788;4.940;2023-04-06T12:19:08;9.40;99.90
13610;DHT22;6876;50.788;4.940;2023-04-06T12:21:57;9.50;99.90
13610;DHT22;6876;50.788;4.940;2023-04-06T12:24:44;9.60;99.90
13610;DHT22;6876;50.788;4.940;2023-04-06T12:27:31;9.70;99.90
13610;DHT22;6876;50.788;4.940;2023-04-06T12:30:19;9.60;99.90
13610;DHT22;6876;50.788;4.940;2023-04-06T12:33:06;9.50;99.90
13610;DHT22;6876;50.788;4.940;2023-04-06T12:35:55;9.40;99.90
13610;DHT22;6876;50.788;4.940;2023-04-06T12:38:42;9.50;99.90
13610;DHT22;6876;50.788;4.940;2023-04-06T12:41:31;9.50;99.90
13610;DHT22;6876;50.788;4.940;2023-04-06T12:44:19;9.60;99.90
13610;DHT22;6876;50.788;4.940;2023-04-06T12:47:06;9.60;99.90
13610;DHT22;6876;50.788;4.940;2023-04-06T12:49:53;9.70;99.90
13610;DHT22;6876;50.788;4.940;2023-04-06T12:52:42;9.80;99.90
13610;DHT22;6876;50.788;4.940;2023-04-06T12:55:30;9.70;99.90
13610;DHT22;6876;50.788;4.940;2023-04-06T12:58:20;9.70;99.90
13610;DHT22;6876;50.788;4.940;2023-04-06T13:01:08;9.90;99.90
13610;DHT22;6876;50.788;4.940;2023-04-06T13:03:57;10.00;99.90
13610;DHT22;6876;50.788;4.940;2023-04-06T13:06:45;10.10;99.90
13610;DHT22;6876;50.788;4.940;2023-04-06T13:09:33;9.90;99.90
13610;DHT22;6876;50.788;4.940;2023-04-06T13:12:21;9.90;99.90
13610;DHT22;6876;50.788;4.940;2023-04-06T13:15:09;9.90;99.90
13610;DHT22;6876;50.788;4.940;2023-04-06T13:17:56;9.80;99.90
13610;DHT22;6876;50.788;4.940;2023-04-06T13:20:43;9.70;99.90
13610;DHT22;6876;50.788;4.940;2023-04-06T13:23:31;9.70;99.90
13610;DHT22;6876;50.788;4.940;2023-04-06T13:26:20;9.70;99.90
13610;DHT22;6876;50.788;4.940;2023-04-06T13:29:07;9.80;99.90
13610;DHT22;6876;50.788;4.940;2023-04-06T13:31:54;9.90;99.90
13610;DHT22;6876;50.788;4.940;2023-04-06T13:34:41;10.00;99.90
13610;DHT22;6876;50.788;4.940;2023-04-06T13:37:30;10.10;99.90
13610;DHT22;6876;50.788;4.940;2023-04-06T13:40:18;10.00;99.90
13610;DHT22;6876;50.788;4.940;2023-04-06T13:43:06;9.90;99.90
13610;DHT22;6876;50.788;4.940;2023-04-06T13:45:54;9.90;99.90
13610;DHT22;6876;50.788;4.940;2023-04-06T13:48:43;9.80;99.90
13610;DHT22;6876;50.788;4.940;2023-04-06T13:51:31;9.70;99.90
13610;DHT22;6876;50.788;4.940;2023-04-06T13:54:19;9.60;99.90
13610;DHT22;6876;50.788;4.940;2023-04-06T13:57:07;9.50;99.90
13610;DHT22;6876;50.788;4.940;2023-04-06T13:59:56;9.40;99.90
13610;DHT22;6876;50.788;4.940;2023-04-06T14:02:43;9.40;99.90
13610;DHT22;6876;50.788;4.940;2023-04-06T14:05:31;9.40;99.90
13610;DHT22;6876;50.788;4.940;2023-04-06T14:08:18;9.30;99.90
13610;DHT22;6876;50.788;4.940;2023-04-06T14:11:10;9.40;99.90
13610;DHT22;6876;50.788;4.940;2023-04-06T14:13:57;9.40;99.90
13610;DHT22;6876;50.788;4.940;2023-04-06T14:16:46;9.40;99.90
13610;DHT22;6876;50.788;4.940;2023-04-06T14:19:34;9.50;99.90
13610;DHT22;6876;50.788;4.940;2023-04-06T14:22:21;9.60;99.90
13610;DHT22;6876;50.788;4.940;2023-04-06T14:25:09;9.60;99.90
13610;DHT22;6876;50.788;4.940;2023-04-06T14:27:58;9.60;99.90
13610;DHT22;6876;50.788;4.940;2023-04-06T14:30:45;9.60;99.90
13610;DHT22;6876;50.788;4.940;2023-04-06T14:33:34;9.60;99.90
13610;DHT22;6876;50.788;4.940;2023-04-06T14:36:22;9.70;99.90
13610;DHT22;6876;50.788;4.940;2023-04-06T14:39:09;9.70;99.90
13610;DHT22;6876;50.788;4.940;2023-04-06T14:41:56;9.60;99.90
13610;DHT22;6876;50.788;4.940;2023-04-06T14:44:43;9.60;99.90
13610;DHT22;6876;50.788;4.940;2023-04-06T14:47:32;9.60;99.90
13610;DHT22;6876;50.788;4.940;2023-04-06T14:50:20;9.60;99.90
13610;DHT22;6876;50.788;4.940;2023-04-06T14:53:07;9.50;99.90
13610;DHT22;6876;50.788;4.940;2023-04-06T14:55:55;9.50;99.90
13610;DHT22;6876;50.788;4.940;2023-04-06T14:58:42;9.50;99.90
13610;DHT22;6876;50.788;4.940;2023-04-06T15:01:33;9.40;99.90
13610;DHT22;6876;50.788;4.940;2023-04-06T15:04:20;9.40;99.90
13610;DHT22;6876;50.788;4.940;2023-04-06T15:07:09;9.30;99.90
13610;DHT22;6876;50.788;4.940;2023-04-06T15:09:56;9.40;99.90
13610;DHT22;6876;50.788;4.940;2023-04-06T15:12:44;9.30;99.90
13610;DHT22;6876;50.788;4.940;2023-04-06T15:15:31;9.30;99.90
13610;DHT22;6876;50.788;4.940;2023-04-06T15:18:18;9.30;99.90
13610;DHT22;6876;50.788;4.940;2023-04-06T15:21:06;9.30;99.90
13610;DHT22;6876;50.788;4.940;2023-04-06T15:23:55;9.30;99.90
13610;DHT22;6876;50.788;4.940;2023-04-06T15:26:42;9.30;99.90
13610;DHT22;6876;50.788;4.940;2023-04-06T15:29:31;9.30;99.90
13610;DHT22;6876;50.788;4.940;2023-04-06T15:32:18;9.40;99.90
13610;DHT22;6876;50.788;4.940;2023-04-06T15:35:09;9.50;99.90
13610;DHT22;6876;50.788;4.940;2023-04-06T15:37:57;9.60;99.90
13610;DHT22;6876;50.788;4.940;2023-04-06T15:40:47;9.60;99.90
13610;DHT22;6876;50.788;4.940;2023-04-06T15:43:35;9.70;99.90
13610;DHT22;6876;50.788;4.940;2023-04-06T15:46:24;9.70;99.90
13610;DHT22;6876;50.788;4.940;2023-04-06T15:49:12;9.70;99.90
13610;DHT22;6876;50.788;4.940;2023-04-06T15:51:59;9.70;99.90
13610;DHT22;6876;50.788;4.940;2023-04-06T15:54:47;9.80;99.90
13610;DHT22;6876;50.788;4.940;2023-04-06T15:57:35;9.90;99.90
13610;DHT22;6876;50.788;4.940;2023-04-06T16:00:23;10.10;99.90
13610;DHT22;6876;50.788;4.940;2023-04-06T16:03:11;10.10;99.90
13610;DHT22;6876;50.788;4.940;2023-04-06T16:05:58;10.20;99.90
13610;DHT22;6876;50.788;4.940;2023-04-06T16:08:45;10.20;99.90
13610;DHT22;6876;50.788;4.940;2023-04-06T16:11:33;10.30;99.90
13610;DHT22;6876;50.788;4.940;2023-04-06T16:14:23;10.30;99.90
13610;DHT22;6876;50.788;4.940;2023-04-06T16:17:10;10.30;99.90
13610;DHT22;6876;50.788;4.940;2023-04-06T16:19:57;10.40;99.90
13610;DHT22;6876;50.788;4.940;2023-04-06T16:22:44;10.40;99.90
13610;DHT22;6876;50.788;4.940;2023-04-06T16:25:32;10.40;88.90
13610;DHT22;6876;50.788;4.940;2023-04-06T16:28:20;10.40;41.80
13610;DHT22;6876;50.788;4.940;2023-04-06T16:31:17;10.50;21.30
13610;DHT22;6876;50.788;4.940;2023-04-06T16:34:06;10.50;26.70
13610;DHT22;6876;50.788;4.940;2023-04-06T16:36:57;10.60;40.80
13610;DHT22;6876;50.788;4.940;2023-04-06T16:39:44;10.60;1.10
13610;DHT22;6876;50.788;4.940;2023-04-06T16:42:31;10.60;1.00
13610;DHT22;6876;50.788;4.940;2023-04-06T16:45:18;10.60;1.00
13610;DHT22;6876;50.788;4.940;2023-04-06T16:48:07;10.60;2.90
13610;DHT22;6876;50.788;4.940;2023-04-06T16:50:54;10.60;1.00
13610;DHT22;6876;50.788;4.940;2023-04-06T16:53:42;10.70;20.20
13610;DHT22;6876;50.788;4.940;2023-04-06T16:56:30;10.70;1.00
13610;DHT22;6876;50.788;4.940;2023-04-06T16:59:17;10.80;1.00
13610;DHT22;6876;50.788;4.940;2023-04-06T17:02:04;10.80;1.00
13610;DHT22;6876;50.788;4.940;2023-04-06T17:04:53;10.80;1.00
13610;DHT22;6876;50.788;4.940;2023-04-06T17:07:40;10.70;1.00
13610;DHT22;6876;50.788;4.940;2023-04-06T17:10:27;10.70;1.00
13610;DHT22;6876;50.788;4.940;2023-04-06T17:13:15;10.60;1.00
13610;DHT22;6876;50.788;4.940;2023-04-06T17:16:02;10.60;1.00
13610;DHT22;6876;50.788;4.940;2023-04-06T17:18:49;10.50;11.20
13610;DHT22;6876;50.788;4.940;2023-04-06T17:21:39;10.50;17.40
13610;DHT22;6876;50.788;4.940;2023-04-06T17:24:27;10.40;48.00
13610;DHT22;6876;50.788;4.940;2023-04-06T17:27:14;10.50;96.80
13610;DHT22;6876;50.788;4.940;2023-04-06T17:30:02;10.40;99.90
13610;DHT22;6876;50.788;4.940;2023-04-06T17:32:51;10.40;91.40
13610;DHT22;6876;50.788;4.940;2023-04-06T17:35:38;10.40;99.90
13610;DHT22;6876;50.788;4.940;2023-04-06T17:38:28;10.40;99.90
13610;DHT22;6876;50.788;4.940;2023-04-06T17:41:15;10.40;99.90
13610;DHT22;6876;50.788;4.940;2023-04-06T17:44:02;10.40;99.90
13610;DHT22;6876;50.788;4.940;2023-04-06T17:46:50;10.40;99.90
13610;DHT22;6876;50.788;4.940;2023-04-06T17:49:37;10.40;99.90
13610;DHT22;6876;50.788;4.940;2023-04-06T17:52:25;10.30;99.90
13610;DHT22;6876;50.788;4.940;2023-04-06T17:55:13;10.30;99.90
13610;DHT22;6876;50.788;4.940;2023-04-06T17:58:01;10.30;99.90
13610;DHT22;6876;50.788;4.940;2023-04-06T18:00:48;10.20;99.90
13610;DHT22;6876;50.788;4.940;2023-04-06T18:03:36;10.20;99.90
13610;DHT22;6876;50.788;4.940;2023-04-06T18:06:23;10.20;99.90
13610;DHT22;6876;50.788;4.940;2023-04-06T18:09:11;10.20;99.90
13610;DHT22;6876;50.788;4.940;2023-04-06T18:11:59;10.20;99.90
13610;DHT22;6876;50.788;4.940;2023-04-06T18:14:47;10.20;99.90